createdAt,value
2024-02-18T00:01:37.158Z,5.18
2024-02-18T00:06:38.759Z,5.32
2024-02-18T00:11:40.308Z,5.45
2024-02-18T00:16:41.968Z,5.47
2024-02-18T00:21:43.556Z,5.47
2024-02-18T00:26:57.772Z,5.85
2024-02-18T00:32:00.817Z,6.30
2024-02-18T00:37:02.497Z,5.85
2024-02-18T00:42:04.451Z,6.35
2024-02-18T00:47:06.421Z,6.43
2024-02-18T00:52:08.062Z,6.38
2024-02-18T00:57:09.694Z,7.63
2024-02-18T01:02:11.290Z,7.90
2024-02-18T01:07:12.873Z,8.35
2024-02-18T01:12:14.412Z,8.95
2024-02-18T01:17:15.900Z,10.15
2024-02-18T01:22:17.386Z,9.40
2024-02-18T01:27:19.554Z,10.48
2024-02-18T01:32:21.073Z,10.27
2024-02-18T01:37:22.723Z,10.10
2024-02-18T01:42:24.241Z,10.35
2024-02-18T01:47:26.016Z,11.25
2024-02-18T01:52:27.818Z,11.35
2024-02-18T01:57:29.380Z,11.48
2024-02-18T02:02:30.900Z,12.20
2024-02-18T02:07:32.392Z,12.05
2024-02-18T02:12:33.878Z,13.32
2024-02-18T02:17:35.403Z,12.40
2024-02-18T02:22:37.342Z,13.45
2024-02-18T02:27:41.721Z,14.23
2024-02-18T02:32:43.228Z,15.63
2024-02-18T02:37:44.788Z,14.88
2024-02-18T02:42:46.375Z,15.68
2024-02-18T02:47:47.994Z,16.55
2024-02-18T02:52:49.534Z,17.00
2024-02-18T02:57:51.001Z,17.35
2024-02-18T03:02:52.667Z,17.70
2024-02-18T03:07:54.137Z,17.95
2024-02-18T03:12:55.626Z,18.48
2024-02-18T03:17:57.306Z,18.95
2024-02-18T03:22:59.003Z,19.20
2024-02-18T03:28:00.580Z,18.85
2024-02-18T03:33:02.242Z,20.08
2024-02-18T03:38:04.181Z,20.13
2024-02-18T03:43:05.903Z,19.63
2024-02-18T03:48:07.499Z,16.88
2024-02-18T03:53:09.128Z,17.58
2024-02-18T03:58:10.627Z,18.27
2024-02-18T04:03:12.137Z,15.98
2024-02-18T04:08:13.612Z,17.20
2024-02-18T04:13:15.107Z,17.38
2024-02-18T04:18:17.152Z,16.55
2024-02-18T04:23:18.831Z,15.90
2024-02-18T04:28:20.341Z,14.90
2024-02-18T04:33:21.935Z,15.18
2024-02-18T04:38:23.469Z,15.60
2024-02-18T04:43:25.262Z,14.63
2024-02-18T04:48:26.788Z,14.20
2024-02-18T04:53:28.339Z,15.55
2024-02-18T04:58:29.813Z,14.68
2024-02-18T05:03:31.439Z,13.63
2024-02-18T05:08:32.966Z,13.30
2024-02-18T05:13:34.625Z,13.38
2024-02-18T05:18:36.368Z,13.45
2024-02-18T05:23:37.985Z,12.13
2024-02-18T05:28:39.434Z,13.32
2024-02-18T05:33:41.054Z,12.60
2024-02-18T05:38:42.803Z,12.68
2024-02-18T05:43:44.690Z,12.25
2024-02-18T05:48:46.427Z,13.02
2024-02-18T05:53:47.991Z,13.35
2024-02-18T05:58:49.418Z,11.90
2024-02-18T06:03:50.982Z,12.23
2024-02-18T06:08:52.566Z,11.82
2024-02-18T06:13:54.073Z,11.32
2024-02-18T06:18:55.715Z,11.60
2024-02-18T06:23:57.275Z,11.20
2024-02-18T06:28:58.797Z,10.60
2024-02-18T06:34:00.525Z,12.07
2024-02-18T06:39:02.022Z,11.18
2024-02-18T06:44:03.521Z,9.93
2024-02-18T06:49:06.372Z,9.20
2024-02-18T06:54:07.903Z,10.10
2024-02-18T06:59:09.411Z,9.38
2024-02-18T07:04:11.316Z,8.82
2024-02-18T07:09:12.890Z,7.65
2024-02-18T07:14:14.447Z,7.88
2024-02-18T07:19:16.137Z,8.70
2024-02-18T07:24:18.062Z,8.73
2024-02-18T07:29:19.780Z,8.05
2024-02-18T07:34:21.480Z,7.53
2024-02-18T07:39:23.394Z,7.35
2024-02-18T07:44:24.954Z,7.50
2024-02-18T07:49:26.550Z,8.00
2024-02-18T07:54:28.095Z,8.18
2024-02-18T07:59:29.628Z,7.47
2024-02-18T08:04:31.336Z,8.55
2024-02-18T08:09:33.065Z,7.10
2024-02-18T08:14:34.546Z,7.60
2024-02-18T08:19:36.154Z,7.65
2024-02-18T08:24:37.769Z,7.15
2024-02-18T08:29:39.291Z,6.80
2024-02-18T08:34:41.136Z,6.80
2024-02-18T08:39:42.724Z,6.45
2024-02-18T08:44:44.288Z,6.68
2024-02-18T08:49:45.961Z,6.90
2024-02-18T08:54:47.884Z,6.53
2024-02-18T08:59:49.408Z,6.90
2024-02-18T09:04:51.011Z,6.32
2024-02-18T09:09:52.657Z,7.07
2024-02-18T09:14:54.252Z,6.13
2024-02-18T09:19:55.982Z,7.07
2024-02-18T09:24:57.597Z,6.45
2024-02-18T09:29:59.097Z,5.95
2024-02-18T09:35:34.763Z,6.20
2024-02-18T09:40:59.235Z,5.55
2024-02-18T09:46:01.055Z,5.93
2024-02-18T09:51:03.474Z,5.03
2024-02-18T09:56:05.093Z,5.03
2024-02-18T10:01:06.949Z,5.38
2024-02-18T10:06:08.621Z,4.97
2024-02-18T10:11:13.313Z,5.57
2024-02-18T10:16:15.254Z,4.38
2024-02-18T10:21:16.882Z,5.50
2024-02-18T10:26:18.484Z,4.65
2024-02-18T10:31:20.090Z,6.15
2024-02-18T10:36:23.139Z,5.22
2024-02-18T10:41:38.773Z,4.65
2024-02-18T10:46:42.285Z,4.43
2024-02-18T10:51:45.570Z,4.85
2024-02-18T10:56:47.379Z,4.75
2024-02-18T11:01:54.870Z,5.13
2024-02-18T11:06:56.690Z,4.80
2024-02-18T11:12:00.512Z,3.95
2024-02-18T11:17:02.102Z,4.85
2024-02-18T11:22:03.897Z,4.80
2024-02-18T11:27:05.612Z,4.75
2024-02-18T11:32:07.656Z,5.38
2024-02-18T11:37:28.371Z,4.80
2024-02-18T11:42:29.834Z,5.07
2024-02-18T11:47:34.701Z,4.50
2024-02-18T11:52:36.632Z,4.75
2024-02-18T11:57:38.505Z,5.03
2024-02-18T12:02:43.078Z,4.78
2024-02-18T12:07:46.457Z,5.00
2024-02-18T12:12:48.293Z,4.07
2024-02-18T12:17:50.616Z,4.63
2024-02-18T12:22:52.639Z,3.85
2024-02-18T12:27:54.130Z,4.43
2024-02-18T12:32:57.696Z,3.15
2024-02-18T12:38:01.581Z,4.30
2024-02-18T12:43:26.279Z,3.97
2024-02-18T12:48:26.113Z,4.07
2024-02-18T12:53:27.788Z,3.90
2024-02-18T12:58:29.832Z,4.88
2024-02-18T13:03:31.353Z,4.32
2024-02-18T13:08:35.756Z,3.80
2024-02-18T13:13:37.221Z,4.05
2024-02-18T13:18:38.747Z,4.65
2024-02-18T13:23:40.317Z,4.60
2024-02-18T13:28:42.044Z,4.47
2024-02-18T13:33:43.745Z,4.25
2024-02-18T13:38:45.342Z,3.83
2024-02-18T13:43:46.826Z,4.30
2024-02-18T13:48:48.508Z,3.53
2024-02-18T13:53:50.110Z,3.35
2024-02-18T13:58:51.750Z,3.55
2024-02-18T14:03:53.535Z,3.42
2024-02-18T14:08:56.620Z,4.15
2024-02-18T14:13:58.273Z,3.60
2024-02-18T14:19:00.139Z,3.53
2024-02-18T14:24:01.674Z,2.85
2024-02-18T14:29:06.247Z,3.97
2024-02-18T14:34:07.996Z,3.67
2024-02-18T14:39:09.958Z,3.88
2024-02-18T14:44:11.512Z,3.90
2024-02-18T14:49:13.426Z,3.58
2024-02-18T14:54:14.966Z,4.20
2024-02-18T14:59:16.447Z,3.88
2024-02-18T15:04:17.906Z,3.97
2024-02-18T15:09:19.435Z,4.25
2024-02-18T15:14:20.886Z,3.60
2024-02-18T15:19:23.548Z,3.97
2024-02-18T15:24:26.434Z,3.78
2024-02-18T15:29:28.113Z,4.10
2024-02-18T15:34:33.464Z,4.10
2024-02-18T15:39:35.015Z,3.92
2024-02-18T15:44:36.705Z,4.30
2024-02-18T15:49:38.405Z,3.65
2024-02-18T15:54:39.981Z,4.35
2024-02-18T15:59:41.559Z,4.00
2024-02-18T16:04:43.276Z,3.58
2024-02-18T16:09:48.157Z,4.20
2024-02-18T16:14:49.669Z,4.10
2024-02-18T16:19:51.309Z,4.25
2024-02-18T16:24:52.904Z,3.75
2024-02-18T16:29:54.399Z,4.35
2024-02-18T16:34:55.976Z,4.13
2024-02-18T16:39:57.704Z,3.50
2024-02-18T16:44:59.638Z,7.18
2024-02-18T16:50:01.480Z,5.22
2024-02-18T16:55:03.421Z,4.53
2024-02-18T17:00:05.182Z,4.20
2024-02-18T17:05:06.733Z,3.85
2024-02-18T17:10:08.983Z,4.72
2024-02-18T17:15:10.800Z,4.25
2024-02-18T17:20:12.780Z,4.50
2024-02-18T17:25:14.558Z,4.53
2024-02-18T17:30:16.073Z,4.50
2024-02-18T17:35:17.643Z,4.57
2024-02-18T17:40:19.200Z,4.13
2024-02-18T17:45:20.750Z,4.43
2024-02-18T17:50:22.621Z,5.32
2024-02-18T17:55:24.162Z,5.10
2024-02-18T18:00:25.667Z,5.15
2024-02-18T18:05:27.197Z,5.45
2024-02-18T18:10:28.761Z,4.93
2024-02-18T18:15:30.238Z,4.95
2024-02-18T18:20:31.741Z,4.93
2024-02-18T18:25:33.261Z,4.50
2024-02-18T18:30:35.097Z,3.90
2024-02-18T18:35:36.589Z,4.45
2024-02-18T18:40:38.062Z,4.38
2024-02-18T18:45:39.686Z,4.93
2024-02-18T18:50:41.536Z,4.75
2024-02-18T18:55:43.832Z,5.32
2024-02-18T19:00:45.412Z,5.75
2024-02-18T19:05:46.986Z,5.93
2024-02-18T19:10:48.554Z,5.25
2024-02-18T19:15:50.076Z,5.75
2024-02-18T19:20:52.118Z,7.05
2024-02-18T19:25:53.690Z,6.28
2024-02-18T19:30:55.401Z,7.70
2024-02-18T19:35:56.882Z,6.57
2024-02-18T19:40:58.499Z,7.30
2024-02-18T19:46:01.314Z,8.13
2024-02-18T19:51:03.318Z,6.93
2024-02-18T19:56:04.966Z,7.60
2024-02-18T20:01:06.471Z,7.95
2024-02-18T20:06:08.023Z,9.93
2024-02-18T20:11:09.517Z,9.57
2024-02-18T20:16:11.082Z,10.07
2024-02-18T20:21:12.587Z,9.80
2024-02-18T20:26:18.978Z,9.02
2024-02-18T20:31:20.989Z,8.13
2024-02-18T20:36:22.653Z,8.85
2024-02-18T20:41:24.263Z,8.75
2024-02-18T20:46:25.785Z,10.15
2024-02-18T20:51:27.663Z,9.63
2024-02-18T20:56:29.195Z,9.00
2024-02-18T21:01:30.782Z,9.68
2024-02-18T21:06:33.601Z,8.95
2024-02-18T21:11:36.587Z,8.93
2024-02-18T21:16:38.127Z,9.13
2024-02-18T21:21:40.064Z,8.25
2024-02-18T21:26:41.632Z,7.68
2024-02-18T21:31:43.763Z,8.20
2024-02-18T21:36:45.295Z,7.85
2024-02-18T21:41:47.089Z,7.70
2024-02-18T21:46:48.595Z,7.00
2024-02-18T21:51:50.480Z,7.28
2024-02-18T21:56:51.949Z,7.72
2024-02-18T22:01:53.779Z,7.93
2024-02-18T22:07:08.887Z,7.15
2024-02-18T22:12:17.016Z,6.03
2024-02-18T22:17:18.496Z,6.35
2024-02-18T22:22:20.132Z,5.85
2024-02-18T22:27:21.685Z,6.35
2024-02-18T22:32:23.175Z,5.47
2024-02-18T22:37:24.777Z,5.32
2024-02-18T22:42:26.490Z,4.53
2024-02-18T22:47:27.970Z,4.22
2024-02-18T22:52:29.481Z,3.40
2024-02-18T22:57:30.957Z,1.50
2024-02-18T23:02:32.924Z,0.95
2024-02-18T23:07:34.408Z,0.70
2024-02-18T23:12:35.912Z,0.70
2024-02-18T23:17:37.496Z,0.57
2024-02-18T23:22:39.220Z,0.38
2024-02-18T23:27:40.719Z,0.60
2024-02-18T23:32:42.248Z,0.68
2024-02-18T23:37:43.775Z,0.40
2024-02-18T23:42:45.270Z,0.50
2024-02-18T23:47:46.788Z,0.40
2024-02-18T23:52:49.528Z,1.27
2024-02-18T23:57:51.000Z,0.60
